createdAt,value
2023-01-20T00:01:04.347Z,3.57
2023-01-20T00:03:31.002Z,3.56
2023-01-20T00:06:02.617Z,3.67
2023-01-20T00:08:31.493Z,3.75
2023-01-20T00:10:58.119Z,3.79
2023-01-20T00:13:24.718Z,3.78
2023-01-20T00:15:51.814Z,3.88
2023-01-20T00:18:19.057Z,3.93
2023-01-20T00:20:45.776Z,3.98
2023-01-20T00:23:12.457Z,3.92
2023-01-20T00:25:41.407Z,3.91
2023-01-20T00:28:08.039Z,3.85
2023-01-20T00:30:34.714Z,3.85
2023-01-20T00:33:03.913Z,3.78
2023-01-20T00:35:32.987Z,3.76
2023-01-20T00:37:59.813Z,3.86
2023-01-20T00:40:26.445Z,3.77
2023-01-20T00:42:53.139Z,3.76
2023-01-20T00:45:19.798Z,3.74
2023-01-20T00:47:46.435Z,3.89
2023-01-20T00:50:13.015Z,3.92
2023-01-20T00:52:39.608Z,3.95
2023-01-20T00:55:06.504Z,4.08
2023-01-20T00:57:33.065Z,4.18
2023-01-20T00:59:59.673Z,4.32
2023-01-20T01:02:28.891Z,4.42
2023-01-20T01:04:55.533Z,4.42
2023-01-20T01:07:22.217Z,4.47
2023-01-20T01:09:49.096Z,4.40
2023-01-20T01:12:15.783Z,4.45
2023-01-20T01:14:42.833Z,4.38
2023-01-20T01:17:09.472Z,4.36
2023-01-20T01:19:36.086Z,4.36
2023-01-20T01:22:02.746Z,4.22
2023-01-20T01:24:29.405Z,4.06
2023-01-20T01:26:56.068Z,4.06
2023-01-20T01:29:25.118Z,3.97
2023-01-20T01:31:54.854Z,3.95
2023-01-20T01:34:21.426Z,3.96
2023-01-20T01:36:48.272Z,4.05
2023-01-20T01:39:15.260Z,4.09
2023-01-20T01:41:44.119Z,4.08
2023-01-20T01:44:11.612Z,4.06
2023-01-20T01:46:38.387Z,4.06
2023-01-20T01:49:07.554Z,4.15
2023-01-20T01:51:35.757Z,4.16
2023-01-20T01:54:03.568Z,4.19
2023-01-20T01:56:30.317Z,4.19
2023-01-20T01:59:00.312Z,4.10
2023-01-20T02:01:29.961Z,4.04
2023-01-20T02:03:58.133Z,3.97
2023-01-20T02:06:27.573Z,3.99
2023-01-20T02:08:57.369Z,4.07
2023-01-20T02:11:23.958Z,4.17
2023-01-20T02:13:53.041Z,4.13
2023-01-20T02:16:31.879Z,4.12
2023-01-20T02:19:01.672Z,4.21
2023-01-20T02:21:46.557Z,4.13
2023-01-20T02:24:31.912Z,3.96
2023-01-20T02:27:01.906Z,3.84
2023-01-20T02:29:43.987Z,3.81
2023-01-20T02:32:12.094Z,3.94
2023-01-20T02:34:41.037Z,3.89
2023-01-20T02:37:17.423Z,3.97
2023-01-20T02:39:50.330Z,3.99
2023-01-20T02:42:24.775Z,3.92
2023-01-20T02:44:53.176Z,3.90
2023-01-20T02:47:38.598Z,3.93
2023-01-20T02:50:09.887Z,3.96
2023-01-20T02:52:37.765Z,4.02
2023-01-20T02:55:05.651Z,3.99
2023-01-20T02:57:38.012Z,3.96
2023-01-20T03:00:09.098Z,3.96
2023-01-20T03:02:37.789Z,4.03
2023-01-20T03:05:10.769Z,4.07
2023-01-20T03:07:39.896Z,3.98
2023-01-20T03:10:10.723Z,4.07
2023-01-20T03:12:42.626Z,4.14
2023-01-20T03:15:14.446Z,4.20
2023-01-20T03:17:43.640Z,4.19
2023-01-20T03:20:13.583Z,4.14
2023-01-20T03:22:42.556Z,4.13
2023-01-20T03:25:12.220Z,4.11
2023-01-20T03:27:39.115Z,4.09
2023-01-20T03:30:15.817Z,3.81
2023-01-20T03:32:46.632Z,3.85
2023-01-20T03:35:16.499Z,3.94
2023-01-20T03:37:45.827Z,4.06
2023-01-20T03:40:12.739Z,4.12
2023-01-20T03:42:41.794Z,4.17
2023-01-20T03:45:15.567Z,4.18
2023-01-20T03:47:42.376Z,4.23
2023-01-20T03:50:18.099Z,4.37
2023-01-20T03:52:51.020Z,4.47
2023-01-20T03:55:21.384Z,4.29
2023-01-20T03:57:54.813Z,4.17
2023-01-20T04:00:21.699Z,4.14
2023-01-20T04:02:48.304Z,4.26
2023-01-20T04:05:17.842Z,4.31
2023-01-20T04:07:44.526Z,4.38
2023-01-20T04:10:11.373Z,4.39
2023-01-20T04:12:40.217Z,4.35
2023-01-20T04:15:07.369Z,4.36
2023-01-20T04:17:34.012Z,4.24
2023-01-20T04:20:00.987Z,4.16
2023-01-20T04:22:43.204Z,4.05
2023-01-20T04:25:13.059Z,4.07
2023-01-20T04:27:40.202Z,4.10
2023-01-20T04:30:09.671Z,4.20
2023-01-20T04:32:38.710Z,4.29
2023-01-20T04:35:05.475Z,4.37
2023-01-20T04:37:32.092Z,4.42
2023-01-20T04:40:01.273Z,4.42
2023-01-20T04:42:28.022Z,4.44
2023-01-20T04:44:54.753Z,4.43
2023-01-20T04:47:23.791Z,4.46
2023-01-20T04:49:50.650Z,4.47
2023-01-20T04:52:18.059Z,4.57
2023-01-20T04:54:44.702Z,4.66
2023-01-20T04:57:13.586Z,4.57
2023-01-20T04:59:45.200Z,4.54
2023-01-20T05:02:11.954Z,4.58
2023-01-20T05:04:38.564Z,4.62
2023-01-20T05:07:07.982Z,4.64
2023-01-20T05:09:37.976Z,4.63
2023-01-20T05:12:04.800Z,4.56
2023-01-20T05:14:31.707Z,4.58
2023-01-20T05:16:58.347Z,4.67
2023-01-20T05:19:25.093Z,4.68
2023-01-20T05:21:51.889Z,4.76
2023-01-20T05:24:18.653Z,4.71
2023-01-20T05:26:47.834Z,4.72
2023-01-20T05:29:17.561Z,4.70
2023-01-20T05:31:46.840Z,4.68
2023-01-20T05:34:17.786Z,4.80
2023-01-20T05:36:49.533Z,4.82
2023-01-20T05:39:18.559Z,4.81
2023-01-20T05:41:46.765Z,4.78
2023-01-20T05:44:17.101Z,4.77
2023-01-20T05:46:46.485Z,4.79
2023-01-20T05:49:15.789Z,4.63
2023-01-20T05:51:42.854Z,4.55
2023-01-20T05:54:10.751Z,4.55
2023-01-20T05:56:40.210Z,4.63
2023-01-20T05:59:10.177Z,4.75
2023-01-20T06:01:38.422Z,4.86
2023-01-20T06:04:05.611Z,4.91
2023-01-20T06:06:32.661Z,4.74
2023-01-20T06:08:59.749Z,4.76
2023-01-20T06:11:26.839Z,4.88
2023-01-20T06:14:15.821Z,4.90
2023-01-20T06:16:55.255Z,4.85
2023-01-20T06:19:27.657Z,4.92
2023-01-20T06:21:54.884Z,4.97
2023-01-20T06:24:21.872Z,4.98
2023-01-20T06:26:50.664Z,4.99
2023-01-20T06:29:20.191Z,4.97
2023-01-20T06:31:49.727Z,4.96
2023-01-20T06:34:16.598Z,5.04
2023-01-20T06:36:47.970Z,5.18
2023-01-20T06:39:17.177Z,5.26
2023-01-20T06:41:43.719Z,5.30
2023-01-20T06:44:11.449Z,5.29
2023-01-20T06:46:38.043Z,5.26
2023-01-20T06:49:04.731Z,5.32
2023-01-20T06:51:37.150Z,5.38
2023-01-20T06:54:03.785Z,5.49
2023-01-20T06:56:30.392Z,5.58
2023-01-20T06:58:59.179Z,5.65
2023-01-20T07:01:27.265Z,5.60
2023-01-20T07:03:54.051Z,5.65
2023-01-20T07:06:32.954Z,5.74
2023-01-20T07:09:02.054Z,5.81
2023-01-20T07:11:29.029Z,5.87
2023-01-20T07:13:55.664Z,5.79
2023-01-20T07:16:25.180Z,5.72
2023-01-20T07:18:52.244Z,5.70
2023-01-20T07:21:21.307Z,5.66
2023-01-20T07:23:50.449Z,5.75
2023-01-20T07:26:18.453Z,5.85
2023-01-20T07:28:45.311Z,5.90
2023-01-20T07:31:15.735Z,5.84
2023-01-20T07:33:42.432Z,5.76
2023-01-20T07:36:09.497Z,5.80
2023-01-20T07:38:39.200Z,5.77
2023-01-20T07:41:10.974Z,5.70
2023-01-20T07:43:42.668Z,5.79
2023-01-20T07:46:09.734Z,5.70
2023-01-20T07:48:38.924Z,5.74
2023-01-20T07:51:08.766Z,5.78
2023-01-20T07:53:36.352Z,5.76
2023-01-20T07:56:07.045Z,5.59
2023-01-20T07:58:33.946Z,5.55
2023-01-20T08:01:08.299Z,5.53
2023-01-20T08:03:37.595Z,5.50
2023-01-20T08:06:08.101Z,5.59
2023-01-20T08:08:34.970Z,5.71
2023-01-20T08:11:02.131Z,5.79
2023-01-20T08:13:31.170Z,5.82
2023-01-20T08:16:01.929Z,5.88
2023-01-20T08:18:28.839Z,5.90
2023-01-20T08:20:55.645Z,5.96
2023-01-20T08:23:22.329Z,5.97
2023-01-20T08:25:52.077Z,5.89
2023-01-20T08:28:18.657Z,5.80
2023-01-20T08:30:45.347Z,5.77
2023-01-20T08:33:14.459Z,5.65
2023-01-20T08:35:43.629Z,5.73
2023-01-20T08:38:12.685Z,5.61
2023-01-20T08:40:42.997Z,5.68
2023-01-20T08:43:12.053Z,5.83
2023-01-20T08:45:38.785Z,5.93
2023-01-20T08:48:08.847Z,5.98
2023-01-20T08:50:36.075Z,5.98
2023-01-20T08:53:05.155Z,6.02
2023-01-20T08:55:32.041Z,6.07
2023-01-20T08:57:58.658Z,6.08
2023-01-20T09:00:27.761Z,6.19
2023-01-20T09:02:55.816Z,6.30
2023-01-20T09:05:23.049Z,6.34
2023-01-20T09:07:52.116Z,6.43
2023-01-20T09:10:21.362Z,6.25
2023-01-20T09:12:49.060Z,6.32
2023-01-20T09:15:16.665Z,6.38
2023-01-20T09:17:46.056Z,6.38
2023-01-20T09:20:12.941Z,6.40
2023-01-20T09:22:40.515Z,6.48
2023-01-20T09:25:09.799Z,6.53
2023-01-20T09:27:36.677Z,6.59
2023-01-20T09:30:08.896Z,6.58
2023-01-20T09:32:35.755Z,6.43
2023-01-20T09:35:04.892Z,6.30
2023-01-20T09:37:50.343Z,6.38
2023-01-20T09:40:37.100Z,6.21
2023-01-20T09:43:24.456Z,6.30
2023-01-20T09:46:02.688Z,6.43
2023-01-20T09:49:00.197Z,6.46
2023-01-20T09:51:56.915Z,6.55
2023-01-20T09:54:24.636Z,6.63
2023-01-20T09:56:51.630Z,6.73
2023-01-20T09:59:29.205Z,6.78
2023-01-20T10:01:57.018Z,6.66
2023-01-20T10:04:33.136Z,6.58
2023-01-20T10:07:08.147Z,6.51
2023-01-20T10:09:55.099Z,6.42
2023-01-20T10:12:24.731Z,6.29
2023-01-20T10:15:02.365Z,6.38
2023-01-20T10:17:33.339Z,6.43
2023-01-20T10:20:04.011Z,6.55
2023-01-20T10:22:46.966Z,6.65
2023-01-20T10:25:23.152Z,6.69
2023-01-20T10:27:54.096Z,6.77
2023-01-20T10:30:24.588Z,6.90
2023-01-20T10:32:54.391Z,6.97
2023-01-20T10:35:22.846Z,7.05
2023-01-20T10:37:51.935Z,7.14
2023-01-20T10:40:24.237Z,7.29
2023-01-20T10:42:55.907Z,7.35
2023-01-20T10:45:29.026Z,7.38
2023-01-20T10:48:02.388Z,7.52
2023-01-20T10:51:01.488Z,7.63
2023-01-20T10:53:34.797Z,7.64
2023-01-20T10:56:17.140Z,7.71
2023-01-20T10:58:47.728Z,7.68
2023-01-20T11:01:16.014Z,7.56
2023-01-20T11:03:48.761Z,7.37
2023-01-20T11:06:22.732Z,7.42
2023-01-20T11:08:49.395Z,7.47
2023-01-20T11:11:17.105Z,7.54
2023-01-20T11:13:43.892Z,7.44
2023-01-20T11:16:18.810Z,7.38
2023-01-20T11:18:54.992Z,7.41
2023-01-20T11:21:26.083Z,7.49
2023-01-20T11:23:53.246Z,7.47
2023-01-20T11:26:27.764Z,7.34
2023-01-20T11:29:01.463Z,7.24
2023-01-20T11:31:34.349Z,7.11
2023-01-20T11:34:16.350Z,7.01
2023-01-20T11:36:46.009Z,7.05
2023-01-20T11:39:26.536Z,7.01
2023-01-20T11:42:31.360Z,7.02
2023-01-20T11:45:21.574Z,7.05
2023-01-20T11:48:03.986Z,7.13
2023-01-20T11:50:33.690Z,7.14
2023-01-20T11:53:13.323Z,7.10
2023-01-20T11:55:45.432Z,7.03
2023-01-20T11:58:16.848Z,7.04
2023-01-20T12:00:43.923Z,7.05
2023-01-20T12:03:10.579Z,7.00
2023-01-20T12:05:44.492Z,6.95
2023-01-20T12:08:13.604Z,6.91
2023-01-20T12:10:40.356Z,6.74
2023-01-20T12:13:13.868Z,6.75
2023-01-20T12:15:44.700Z,6.66
2023-01-20T12:18:19.172Z,6.70
2023-01-20T12:20:54.948Z,6.75
2023-01-20T12:23:45.967Z,6.79
2023-01-20T12:26:18.676Z,6.69
2023-01-20T12:28:56.692Z,6.51
2023-01-20T12:31:26.301Z,6.42
2023-01-20T12:34:16.237Z,6.45
2023-01-20T12:36:45.867Z,6.48
2023-01-20T12:39:21.767Z,6.46
2023-01-20T12:42:07.282Z,6.55
2023-01-20T12:44:34.067Z,6.49
2023-01-20T12:47:00.706Z,6.42
2023-01-20T12:49:45.998Z,6.41
2023-01-20T12:52:15.406Z,6.35
2023-01-20T12:54:51.114Z,6.36
2023-01-20T12:57:17.808Z,6.31
2023-01-20T12:59:52.895Z,6.35
2023-01-20T13:02:22.788Z,6.13
2023-01-20T13:04:49.591Z,5.84
2023-01-20T13:07:37.913Z,5.80
2023-01-20T13:10:14.860Z,5.90
2023-01-20T13:12:41.814Z,5.78
2023-01-20T13:15:15.463Z,5.69
2023-01-20T13:17:43.894Z,5.54
2023-01-20T13:20:21.619Z,5.58
2023-01-20T13:22:50.873Z,5.51
2023-01-20T13:25:19.393Z,5.34
2023-01-20T13:27:46.119Z,5.26
2023-01-20T13:30:31.972Z,5.07
2023-01-20T13:33:13.213Z,5.03
2023-01-20T13:35:50.107Z,4.92
2023-01-20T13:38:22.926Z,4.87
2023-01-20T13:40:50.922Z,4.93
2023-01-20T13:43:24.294Z,5.03
2023-01-20T13:46:03.433Z,4.93
2023-01-20T13:48:34.504Z,4.71
2023-01-20T13:51:17.099Z,4.70
2023-01-20T13:53:46.410Z,4.69
2023-01-20T13:56:25.645Z,4.62
2023-01-20T13:58:58.226Z,4.22
2023-01-20T14:01:25.313Z,4.01
2023-01-20T14:04:07.151Z,3.86
2023-01-20T14:06:36.353Z,3.91
2023-01-20T14:09:09.947Z,3.94
2023-01-20T14:11:39.045Z,4.05
2023-01-20T14:14:05.900Z,3.87
2023-01-20T14:16:35.559Z,3.88
2023-01-20T14:19:07.488Z,3.71
2023-01-20T14:21:39.523Z,3.46
2023-01-20T14:24:06.200Z,3.40
2023-01-20T14:26:33.321Z,3.50
2023-01-20T14:29:01.534Z,3.68
2023-01-20T14:31:35.181Z,3.81
2023-01-20T14:34:03.248Z,3.51
2023-01-20T14:36:30.943Z,3.47
2023-01-20T14:38:58.930Z,3.49
2023-01-20T14:41:26.553Z,3.66
2023-01-20T14:43:56.048Z,3.61
2023-01-20T14:46:28.195Z,3.42
2023-01-20T14:48:55.114Z,3.50
2023-01-20T14:51:22.240Z,3.52
2023-01-20T14:54:09.193Z,3.45
2023-01-20T14:56:35.779Z,3.59
2023-01-20T14:59:05.168Z,3.76
2023-01-20T15:01:32.227Z,3.94
2023-01-20T15:04:02.008Z,3.86
2023-01-20T15:06:31.498Z,3.80
2023-01-20T15:09:06.921Z,3.75
2023-01-20T15:11:34.496Z,3.71
2023-01-20T15:14:10.322Z,3.61
2023-01-20T15:16:37.185Z,3.53
2023-01-20T15:19:20.469Z,3.56
2023-01-20T15:21:48.205Z,3.46
2023-01-20T15:24:20.756Z,3.53
2023-01-20T15:26:50.981Z,3.27
2023-01-20T15:29:23.655Z,3.42
2023-01-20T15:31:53.172Z,3.45
2023-01-20T15:34:20.504Z,3.39
2023-01-20T15:36:47.889Z,3.30
2023-01-20T15:39:21.554Z,3.19
2023-01-20T15:41:57.282Z,2.96
2023-01-20T15:44:25.158Z,2.97
2023-01-20T15:46:52.403Z,3.01
2023-01-20T15:49:19.028Z,2.86
2023-01-20T15:51:45.740Z,2.89
2023-01-20T15:54:13.724Z,2.90
2023-01-20T15:56:40.875Z,2.90
2023-01-20T15:59:13.756Z,2.75
2023-01-20T16:01:40.537Z,2.41
2023-01-20T16:04:07.535Z,2.35
2023-01-20T16:06:34.777Z,2.25
2023-01-20T16:09:06.012Z,2.38
2023-01-20T16:11:32.664Z,2.46
2023-01-20T16:13:59.251Z,2.51
2023-01-20T16:16:29.795Z,2.53
2023-01-20T16:18:56.482Z,2.39
2023-01-20T16:21:23.103Z,2.40
2023-01-20T16:23:52.656Z,2.48
2023-01-20T16:26:21.210Z,2.52
2023-01-20T16:28:47.959Z,2.41
2023-01-20T16:31:14.792Z,2.38
2023-01-20T16:33:41.447Z,2.35
2023-01-20T16:36:12.696Z,2.35
2023-01-20T16:38:39.619Z,2.48
2023-01-20T16:41:16.767Z,2.58
2023-01-20T16:43:53.680Z,2.71
2023-01-20T16:46:24.387Z,2.79
2023-01-20T16:48:59.191Z,2.73
2023-01-20T16:51:26.660Z,2.77
2023-01-20T16:53:53.585Z,2.62
2023-01-20T16:56:21.450Z,2.54
2023-01-20T16:58:48.488Z,2.52
2023-01-20T17:01:16.723Z,2.55
2023-01-20T17:03:48.087Z,2.49
2023-01-20T17:06:18.644Z,2.22
2023-01-20T17:08:51.739Z,2.35
2023-01-20T17:11:18.407Z,2.46
2023-01-20T17:13:47.500Z,2.55
2023-01-20T17:16:14.275Z,2.56
2023-01-20T17:18:46.198Z,2.56
2023-01-20T17:21:15.713Z,2.68
2023-01-20T17:23:42.321Z,2.77
2023-01-20T17:26:09.432Z,2.52
2023-01-20T17:28:39.153Z,2.25
2023-01-20T17:31:13.340Z,2.21
2023-01-20T17:33:40.036Z,2.08
2023-01-20T17:36:14.821Z,2.07
2023-01-20T17:38:41.716Z,2.10
2023-01-20T17:41:08.435Z,2.18
2023-01-20T17:43:39.987Z,2.26
2023-01-20T17:46:16.693Z,2.23
2023-01-20T17:48:43.771Z,2.33
2023-01-20T17:51:11.241Z,2.27
2023-01-20T17:53:37.922Z,2.17
2023-01-20T17:56:12.881Z,2.19
2023-01-20T17:58:40.425Z,2.16
2023-01-20T18:01:10.411Z,2.30
2023-01-20T18:03:39.674Z,2.35
2023-01-20T18:06:09.624Z,2.30
2023-01-20T18:08:36.287Z,2.39
2023-01-20T18:11:11.482Z,2.35
2023-01-20T18:13:43.202Z,2.45
2023-01-20T18:16:13.658Z,2.55
2023-01-20T18:18:40.936Z,2.52
2023-01-20T18:21:08.739Z,2.58
2023-01-20T18:23:42.600Z,2.62
2023-01-20T18:26:13.765Z,2.57
2023-01-20T18:28:43.499Z,2.65
2023-01-20T18:31:14.552Z,2.70
2023-01-20T18:33:45.743Z,2.67
2023-01-20T18:36:14.800Z,2.83
2023-01-20T18:38:44.191Z,2.93
2023-01-20T18:41:14.272Z,2.98
2023-01-20T18:43:41.131Z,3.06
2023-01-20T18:46:07.986Z,3.11
2023-01-20T18:48:37.674Z,2.91
2023-01-20T18:51:04.490Z,2.87
2023-01-20T18:53:34.170Z,2.86
2023-01-20T18:56:01.376Z,2.96
2023-01-20T18:58:28.782Z,3.09
2023-01-20T19:01:02.679Z,3.06
2023-01-20T19:03:34.170Z,2.98
2023-01-20T19:06:13.280Z,3.05
2023-01-20T19:08:40.115Z,3.20
2023-01-20T19:11:10.181Z,3.21
2023-01-20T19:13:40.136Z,3.23
2023-01-20T19:16:13.011Z,3.31
2023-01-20T19:18:40.374Z,3.38
2023-01-20T19:21:08.187Z,3.30
2023-01-20T19:23:34.861Z,3.19
2023-01-20T19:26:02.460Z,3.01
2023-01-20T19:28:29.103Z,2.92
2023-01-20T19:30:58.237Z,2.80
2023-01-20T19:33:25.154Z,2.79
2023-01-20T19:35:54.325Z,2.90
2023-01-20T19:38:23.486Z,3.03
2023-01-20T19:40:50.162Z,3.05
2023-01-20T19:43:16.867Z,3.12
2023-01-20T19:45:46.330Z,3.25
2023-01-20T19:48:13.371Z,3.20
2023-01-20T19:50:40.160Z,3.34
2023-01-20T19:53:06.794Z,3.35
2023-01-20T19:55:33.528Z,3.47
2023-01-20T19:58:00.127Z,3.43
2023-01-20T20:00:26.832Z,3.42
2023-01-20T20:02:54.664Z,3.19
2023-01-20T20:05:21.341Z,3.03
2023-01-20T20:07:51.225Z,2.93
2023-01-20T20:10:21.266Z,2.86
2023-01-20T20:12:47.931Z,2.74
2023-01-20T20:15:14.680Z,2.82
2023-01-20T20:17:41.336Z,2.78
2023-01-20T20:20:08.190Z,2.87
2023-01-20T20:22:37.186Z,2.89
2023-01-20T20:25:05.819Z,2.76
2023-01-20T20:27:32.384Z,2.70
2023-01-20T20:30:03.155Z,2.83
2023-01-20T20:32:30.085Z,2.63
2023-01-20T20:34:59.455Z,2.71
2023-01-20T20:37:29.109Z,2.88
2023-01-20T20:39:55.792Z,2.87
2023-01-20T20:42:22.406Z,2.63
2023-01-20T20:44:51.505Z,2.61
2023-01-20T20:47:18.404Z,2.68
2023-01-20T20:49:45.036Z,2.65
2023-01-20T20:52:11.667Z,2.68
2023-01-20T20:54:40.648Z,2.71
2023-01-20T20:57:07.749Z,2.81
2023-01-20T20:59:47.242Z,2.84
2023-01-20T21:02:24.837Z,2.94
2023-01-20T21:04:55.049Z,2.95
2023-01-20T21:07:21.809Z,2.78
2023-01-20T21:09:50.729Z,2.70
2023-01-20T21:12:18.060Z,2.71
2023-01-20T21:14:44.746Z,2.66
2023-01-20T21:17:11.403Z,2.74
2023-01-20T21:19:40.307Z,2.85
2023-01-20T21:22:06.903Z,3.03
2023-01-20T21:24:36.297Z,3.06
2023-01-20T21:27:02.978Z,3.19
2023-01-20T21:29:29.620Z,3.28
2023-01-20T21:31:57.519Z,3.20
2023-01-20T21:34:24.103Z,3.22
2023-01-20T21:36:53.037Z,3.07
2023-01-20T21:39:21.929Z,3.04
2023-01-20T21:41:51.386Z,3.05
2023-01-20T21:44:30.839Z,2.99
2023-01-20T21:47:03.352Z,3.19
2023-01-20T21:49:48.744Z,3.14
2023-01-20T21:52:37.749Z,3.23
2023-01-20T21:55:07.126Z,2.88
2023-01-20T21:57:36.358Z,2.98
2023-01-20T22:00:04.041Z,3.17
2023-01-20T22:02:38.756Z,3.15
2023-01-20T22:05:05.579Z,2.99
2023-01-20T22:07:32.196Z,2.87
2023-01-20T22:09:58.873Z,2.90
2023-01-20T22:12:25.532Z,2.85
2023-01-20T22:14:52.094Z,2.76
2023-01-20T22:17:21.124Z,2.67
2023-01-20T22:19:49.803Z,2.57
2023-01-20T22:22:16.367Z,2.48
2023-01-20T22:24:43.006Z,2.58
2023-01-20T22:27:09.649Z,2.68
2023-01-20T22:29:36.254Z,2.58
2023-01-20T22:32:07.735Z,2.67
2023-01-20T22:34:34.404Z,2.79
2023-01-20T22:37:01.118Z,2.71
2023-01-20T22:39:28.203Z,2.67
2023-01-20T22:41:55.177Z,2.62
2023-01-20T22:44:21.789Z,2.48
2023-01-20T22:46:48.374Z,2.35
2023-01-20T22:49:15.027Z,2.46
2023-01-20T22:51:41.752Z,2.60
2023-01-20T22:54:09.544Z,2.65
2023-01-20T22:56:36.142Z,2.62
2023-01-20T22:59:05.292Z,2.66
2023-01-20T23:01:33.518Z,2.71
2023-01-20T23:04:03.508Z,2.67
2023-01-20T23:06:32.665Z,2.55
2023-01-20T23:09:02.735Z,2.61
2023-01-20T23:11:31.959Z,2.62
2023-01-20T23:13:58.524Z,2.55
2023-01-20T23:16:25.251Z,2.47
2023-01-20T23:18:54.252Z,2.41
2023-01-20T23:21:24.408Z,2.31
2023-01-20T23:23:54.875Z,2.38
2023-01-20T23:26:25.860Z,2.50
2023-01-20T23:28:53.684Z,2.41
2023-01-20T23:31:24.088Z,2.42
2023-01-20T23:33:50.802Z,2.38
2023-01-20T23:36:20.715Z,2.50
2023-01-20T23:38:47.430Z,2.59
2023-01-20T23:41:16.354Z,2.63
2023-01-20T23:43:43.083Z,2.76
2023-01-20T23:46:09.787Z,2.74
2023-01-20T23:48:36.525Z,2.87
2023-01-20T23:51:06.526Z,2.96
2023-01-20T23:53:33.806Z,2.82
2023-01-20T23:56:01.662Z,2.77
2023-01-20T23:58:28.262Z,2.71
